Time;durP1;ratioP1;P1;durP2;ratioP2;P2;SDS_P1;SDS_P2;PMS_P1;PMS_P2;Temp;Humidity;BMP_temperature;BMP_pressure;BME280_temperature;BME280_humidity;BME280_pressure;Samples;Min_cycle;Max_cycle;Signal;HPM_P1;HPM_P2
2023/07/26 00:01:56;;;;;;;81.65;6.50;;;;;;;;;;5003075;28;20119;-51
2023/07/26 00:04:21;;;;;;;69.72;6.00;;;;;;;;;;5002234;28;20029;-50
2023/07/26 00:06:46;;;;;;;97.43;7.23;;;;;;;;;;5000744;28;20122;-51
2023/07/26 00:09:12;;;;;;;82.75;6.70;;;;;;;;;;5002761;28;20521;-50
2023/07/26 00:11:37;;;;;;;124.80;9.37;;;;;;;;;;5001497;28;20368;-51
2023/07/26 00:14:06;;;;;;;86.97;6.88;;;;;;;;;;5004447;28;20294;-51
2023/07/26 00:16:31;;;;;;;115.05;9.02;;;;;;;;;;5002232;28;20059;-51
2023/07/26 00:18:57;;;;;;;71.60;5.53;;;;;;;;;;5003804;28;20398;-52
2023/07/26 00:21:22;;;;;;;85.68;6.78;;;;;;;;;;5002831;28;20049;-51
2023/07/26 00:23:47;;;;;;;77.28;6.63;;;;;;;;;;5000379;28;20025;-51
2023/07/26 00:26:12;;;;;;;64.70;6.10;;;;;;;;;;5004351;28;20546;-51
2023/07/26 00:28:38;;;;;;;131.30;10.20;;;;;;;;;;5002803;28;20326;-51
2023/07/26 00:31:03;;;;;;;93.83;7.00;;;;;;;;;;5002715;28;20037;-50
2023/07/26 00:33:28;;;;;;;91.87;7.20;;;;;;;;;;5001633;28;20272;-50
2023/07/26 00:35:53;;;;;;;76.45;6.35;;;;;;;;;;5000916;28;20287;-51
2023/07/26 00:38:18;;;;;;;85.27;7.03;;;;;;;;;;5004097;28;20013;-51
2023/07/26 00:40:44;;;;;;;139.87;10.87;;;;;;;;;;5001839;28;20327;-51
2023/07/26 00:43:09;;;;;;;89.13;7.63;;;;;;;;;;5001327;28;20257;-51
2023/07/26 00:45:36;;;;;;;133.57;10.82;;;;;;;;;;4998898;28;20463;-53
2023/07/26 00:48:02;;;;;;;76.25;6.72;;;;;;;;;;5004454;28;20021;-51
2023/07/26 00:50:27;;;;;;;80.05;6.95;;;;;;;;;;5003045;28;20529;-50
2023/07/26 00:52:52;;;;;;;96.97;7.85;;;;;;;;;;5001988;28;20032;-51
2023/07/26 00:55:18;;;;;;;61.95;6.10;;;;;;;;;;5002683;28;20436;-53
2023/07/26 00:57:45;;;;;;;153.02;11.45;;;;;;;;;;5001176;28;20026;-51
2023/07/26 01:00:11;;;;;;;80.18;6.97;;;;;;;;;;5002068;28;20173;-51
2023/07/26 01:02:36;;;;;;;100.47;8.05;;;;;;;;;;5002250;28;20026;-51
2023/07/26 01:05:02;;;;;;;77.43;7.13;;;;;;;;;;5003085;28;20119;-51
2023/07/26 01:07:34;;;;;;;81.57;7.60;;;;;;;;;;5002440;28;20610;-51
2023/07/26 01:10:02;;;;;;;91.50;7.70;;;;;;;;;;5004160;28;20521;-51
2023/07/26 01:12:36;;;;;;;82.00;7.43;;;;;;;;;;5002040;28;20050;-51
2023/07/26 01:15:05;;;;;;;81.40;7.25;;;;;;;;;;5003805;28;20723;-51
2023/07/26 01:17:31;;;;;;;87.82;7.53;;;;;;;;;;5016303;28;20954;-50
2023/07/26 01:19:56;;;;;;;87.57;7.45;;;;;;;;;;5001929;28;20105;-51
2023/07/26 01:22:21;;;;;;;76.27;7.20;;;;;;;;;;5006246;28;20113;-51
2023/07/26 01:24:47;;;;;;;144.60;11.80;;;;;;;;;;5005296;28;20611;-51
2023/07/26 01:27:12;;;;;;;69.38;6.82;;;;;;;;;;5006810;28;20462;-53
2023/07/26 01:29:37;;;;;;;142.10;11.63;;;;;;;;;;5005952;28;20029;-52
2023/07/26 01:32:03;;;;;;;80.37;7.87;;;;;;;;;;5005908;28;20322;-51
2023/07/26 01:34:28;;;;;;;85.15;8.18;;;;;;;;;;5006031;28;20261;-51
2023/07/26 01:36:54;;;;;;;89.50;8.43;;;;;;;;;;5005515;28;20119;-51
2023/07/26 01:39:20;;;;;;;86.15;7.93;;;;;;;;;;5006546;28;20189;-51
2023/07/26 01:41:46;;;;;;;167.98;13.32;;;;;;;;;;5005007;28;20069;-51
2023/07/26 01:44:11;;;;;;;68.70;7.13;;;;;;;;;;5005475;28;20010;-51
2023/07/26 01:46:37;;;;;;;130.18;11.38;;;;;;;;;;5003731;28;20030;-50
2023/07/26 01:49:02;;;;;;;73.33;7.37;;;;;;;;;;5004360;28;20601;-51
2023/07/26 01:51:27;;;;;;;80.80;7.80;;;;;;;;;;5006229;28;20691;-51
2023/07/26 01:53:52;;;;;;;76.83;7.87;;;;;;;;;;5004103;28;20368;-52
2023/07/26 01:56:18;;;;;;;86.23;8.27;;;;;;;;;;5004483;28;20364;-51
2023/07/26 01:58:43;;;;;;;133.32;11.30;;;;;;;;;;5007025;28;20309;-53
2023/07/26 02:01:09;;;;;;;75.27;7.40;;;;;;;;;;5005660;28;20121;-51
2023/07/26 02:03:34;;;;;;;96.38;9.05;;;;;;;;;;5005924;28;20332;-51
2023/07/26 02:05:59;;;;;;;76.97;7.20;;;;;;;;;;5004614;28;20033;-51
2023/07/26 02:08:25;;;;;;;82.03;7.68;;;;;;;;;;5005217;28;20260;-50
2023/07/26 02:10:50;;;;;;;133.18;10.32;;;;;;;;;;5003375;28;20056;-51
2023/07/26 02:13:15;;;;;;;96.20;8.70;;;;;;;;;;5005575;28;20045;-51
2023/07/26 02:15:40;;;;;;;126.90;10.73;;;;;;;;;;5006107;28;20673;-51
2023/07/26 02:18:06;;;;;;;90.77;7.87;;;;;;;;;;5004925;28;20773;-51
2023/07/26 02:20:32;;;;;;;80.43;7.55;;;;;;;;;;5007775;28;20869;-53
2023/07/26 02:22:57;;;;;;;74.68;7.32;;;;;;;;;;5003660;28;20147;-51
2023/07/26 02:25:23;;;;;;;88.05;8.00;;;;;;;;;;5005156;28;20536;-51
2023/07/26 02:27:48;;;;;;;145.47;11.70;;;;;;;;;;5004695;28;20033;-52
2023/07/26 02:30:13;;;;;;;73.30;7.87;;;;;;;;;;5004143;28;20552;-51
2023/07/26 02:32:38;;;;;;;108.22;9.25;;;;;;;;;;5001699;28;20406;-51
2023/07/26 02:35:04;;;;;;;72.28;7.20;;;;;;;;;;5004733;28;20087;-51
2023/07/26 02:37:29;;;;;;;93.30;7.93;;;;;;;;;;5003812;28;20044;-51
2023/07/26 02:39:54;;;;;;;89.13;8.20;;;;;;;;;;5001953;28;20102;-50
2023/07/26 02:42:20;;;;;;;73.10;7.27;;;;;;;;;;5005140;28;20025;-51
2023/07/26 02:44:45;;;;;;;131.35;10.90;;;;;;;;;;5004468;28;20595;-51
2023/07/26 02:47:11;;;;;;;102.00;8.73;;;;;;;;;;5006175;28;20456;-51
2023/07/26 02:49:36;;;;;;;63.97;7.05;;;;;;;;;;5002985;28;20525;-50
2023/07/26 02:52:01;;;;;;;85.20;8.17;;;;;;;;;;5004323;28;20047;-51
2023/07/26 02:54:26;;;;;;;104.17;8.60;;;;;;;;;;5004222;28;20276;-51
2023/07/26 02:56:51;;;;;;;152.95;12.15;;;;;;;;;;5004339;28;20285;-51
2023/07/26 02:59:20;;;;;;;94.30;8.30;;;;;;;;;;5005596;28;20076;-51
2023/07/26 03:01:45;;;;;;;137.10;11.30;;;;;;;;;;5002461;28;20269;-53
2023/07/26 03:04:11;;;;;;;79.30;7.55;;;;;;;;;;5005511;28;20022;-50
2023/07/26 03:06:36;;;;;;;56.88;6.35;;;;;;;;;;5003288;28;20415;-52
2023/07/26 03:09:01;;;;;;;94.05;8.43;;;;;;;;;;5005171;28;20041;-51
2023/07/26 03:11:26;;;;;;;81.13;7.37;;;;;;;;;;5004416;28;20033;-53
2023/07/26 03:13:52;;;;;;;140.10;11.17;;;;;;;;;;5002882;28;20659;-51
2023/07/26 03:16:17;;;;;;;84.37;7.37;;;;;;;;;;5002542;28;20737;-51
2023/07/26 03:18:43;;;;;;;103.60;8.52;;;;;;;;;;5002470;28;20659;-51
2023/07/26 03:21:08;;;;;;;71.78;6.85;;;;;;;;;;5003252;28;20041;-51
2023/07/26 03:23:34;;;;;;;96.57;8.60;;;;;;;;;;5002768;28;20222;-51
2023/07/26 03:25:59;;;;;;;78.40;7.07;;;;;;;;;;5002527;28;20275;-50
2023/07/26 03:28:24;;;;;;;82.35;7.32;;;;;;;;;;5004082;28;20045;-51
2023/07/26 03:30:50;;;;;;;162.43;12.33;;;;;;;;;;5001029;28;20431;-51
2023/07/26 03:33:15;;;;;;;90.53;7.83;;;;;;;;;;5010580;28;20281;-51
2023/07/26 03:35:40;;;;;;;62.53;6.30;;;;;;;;;;5002296;28;20351;-50
2023/07/26 03:38:05;;;;;;;104.73;8.80;;;;;;;;;;5004213;28;20351;-53
2023/07/26 03:40:31;;;;;;;85.25;7.35;;;;;;;;;;5003108;28;20368;-51
2023/07/26 03:42:56;;;;;;;136.80;11.00;;;;;;;;;;5002142;28;20542;-50
2023/07/26 03:45:21;;;;;;;81.90;7.37;;;;;;;;;;5001924;28;20060;-51
2023/07/26 03:47:47;;;;;;;145.88;11.57;;;;;;;;;;5004062;28;20503;-51
2023/07/26 03:50:12;;;;;;;93.40;7.30;;;;;;;;;;5002760;28;20030;-51
2023/07/26 03:52:37;;;;;;;96.70;7.57;;;;;;;;;;5010280;28;20128;-51
2023/07/26 03:55:02;;;;;;;61.45;5.82;;;;;;;;;;5004720;28;20427;-51
2023/07/26 03:57:28;;;;;;;97.03;7.82;;;;;;;;;;5006865;28;20624;-51
2023/07/26 03:59:53;;;;;;;143.05;11.27;;;;;;;;;;5002704;28;20553;-52
2023/07/26 04:02:18;;;;;;;95.87;8.17;;;;;;;;;;5003598;28;20125;-51
2023/07/26 04:04:43;;;;;;;124.73;9.57;;;;;;;;;;5001254;28;20587;-51
2023/07/26 04:07:09;;;;;;;77.90;6.90;;;;;;;;;;5002449;28;20268;-51
2023/07/26 04:09:34;;;;;;;79.53;6.73;;;;;;;;;;5003823;28;20593;-50
2023/07/26 04:11:59;;;;;;;107.00;7.73;;;;;;;;;;5001566;28;20281;-51
2023/07/26 04:14:24;;;;;;;83.50;7.47;;;;;;;;;;5004361;28;20805;-51
2023/07/26 04:16:51;;;;;;;133.35;9.68;;;;;;;;;;4999612;28;20065;-51
2023/07/26 04:19:16;;;;;;;85.45;7.18;;;;;;;;;;5005613;28;20056;-51
2023/07/26 04:21:41;;;;;;;102.95;8.40;;;;;;;;;;5001453;28;20045;-51
2023/07/26 04:24:07;;;;;;;90.63;7.97;;;;;;;;;;5002743;28;20021;-51
2023/07/26 04:26:32;;;;;;;85.53;7.28;;;;;;;;;;5003350;28;20265;-51
2023/07/26 04:28:57;;;;;;;138.55;11.40;;;;;;;;;;5002490;28;20785;-50
2023/07/26 04:31:23;;;;;;;97.90;8.27;;;;;;;;;;5003292;28;20026;-53
2023/07/26 04:33:48;;;;;;;144.65;11.07;;;;;;;;;;5002467;28;20032;-52
2023/07/26 04:36:13;;;;;;;77.43;6.50;;;;;;;;;;5002316;28;20033;-51
2023/07/26 04:38:39;;;;;;;90.68;7.15;;;;;;;;;;5001061;28;20176;-51
2023/07/26 04:41:04;;;;;;;67.15;6.30;;;;;;;;;;5000956;28;20041;-51
2023/07/26 04:43:29;;;;;;;105.75;8.70;;;;;;;;;;5002616;28;20010;-51
2023/07/26 04:45:55;;;;;;;156.32;11.65;;;;;;;;;;5000359;28;20085;-51
2023/07/26 04:48:20;;;;;;;102.80;7.88;;;;;;;;;;5003125;28;20450;-51
2023/07/26 04:50:47;;;;;;;113.70;8.95;;;;;;;;;;5001768;28;20121;-51
2023/07/26 04:53:12;;;;;;;113.45;8.35;;;;;;;;;;5003063;28;20268;-51
2023/07/26 04:55:41;;;;;;;80.20;6.73;;;;;;;;;;5002641;28;20026;-51
2023/07/26 04:58:06;;;;;;;90.55;7.47;;;;;;;;;;5000461;28;20614;-51
2023/07/26 05:00:32;;;;;;;80.50;6.87;;;;;;;;;;5001323;28;20195;-51
2023/07/26 05:02:57;;;;;;;141.70;11.13;;;;;;;;;;5001715;28;20275;-51
2023/07/26 05:05:22;;;;;;;84.70;7.00;;;;;;;;;;5001945;28;20273;-51
2023/07/26 05:07:47;;;;;;;134.63;10.50;;;;;;;;;;4999322;28;20279;-51
2023/07/26 05:10:13;;;;;;;79.32;7.47;;;;;;;;;;5003177;28;20310;-51
2023/07/26 05:12:38;;;;;;;84.97;7.10;;;;;;;;;;5001576;28;20384;-51
2023/07/26 05:15:03;;;;;;;90.65;7.30;;;;;;;;;;5001526;28;22389;-51
2023/07/26 05:17:28;;;;;;;75.88;6.45;;;;;;;;;;5001368;28;20028;-51
2023/07/26 05:19:54;;;;;;;142.57;11.07;;;;;;;;;;5000791;28;20033;-51
2023/07/26 05:22:19;;;;;;;82.90;6.70;;;;;;;;;;5001331;28;20277;-51
2023/07/26 05:24:44;;;;;;;76.60;6.65;;;;;;;;;;5002963;28;20268;-51
2023/07/26 05:27:09;;;;;;;69.30;6.40;;;;;;;;;;5001002;28;20021;-51
2023/07/26 05:29:35;;;;;;;87.93;6.90;;;;;;;;;;5004381;28;20712;-51
2023/07/26 05:32:00;;;;;;;135.30;10.48;;;;;;;;;;5000775;28;20331;-51
2023/07/26 05:34:25;;;;;;;89.72;7.10;;;;;;;;;;5002950;28;20392;-51
2023/07/26 05:36:51;;;;;;;154.83;11.13;;;;;;;;;;4999891;28;20050;-51
2023/07/26 05:39:16;;;;;;;78.57;6.32;;;;;;;;;;5001745;28;20358;-51
2023/07/26 05:41:41;;;;;;;101.63;7.37;;;;;;;;;;5001609;28;20025;-53
2023/07/26 05:44:07;;;;;;;89.65;7.20;;;;;;;;;;5002034;28;20265;-51
2023/07/26 05:46:32;;;;;;;83.73;6.53;;;;;;;;;;5002394;28;20411;-51
2023/07/26 05:48:57;;;;;;;119.07;9.10;;;;;;;;;;5001768;28;20975;-51
2023/07/26 05:51:22;;;;;;;90.87;7.43;;;;;;;;;;5000996;28;20269;-51
2023/07/26 05:53:47;;;;;;;74.50;6.20;;;;;;;;;;5000812;28;20299;-51
2023/07/26 05:56:14;;;;;;;86.43;6.70;;;;;;;;;;5001599;28;20431;-51
2023/07/26 05:58:39;;;;;;;77.65;6.38;;;;;;;;;;5002112;28;20033;-51
2023/07/26 06:01:05;;;;;;;137.60;10.27;;;;;;;;;;5000019;28;20262;-51
2023/07/26 06:03:30;;;;;;;82.20;6.63;;;;;;;;;;5003072;28;20041;-51
2023/07/26 06:05:55;;;;;;;137.40;10.67;;;;;;;;;;4999314;28;20782;-51
2023/07/26 06:08:20;;;;;;;75.43;6.87;;;;;;;;;;5003224;28;20311;-51
2023/07/26 06:10:45;;;;;;;76.77;6.13;;;;;;;;;;5005220;28;20359;-51
2023/07/26 06:13:12;;;;;;;90.63;6.90;;;;;;;;;;5005272;28;20009;-53
2023/07/26 06:15:40;;;;;;;77.15;6.65;;;;;;;;;;5005532;28;20290;-51
2023/07/26 06:18:06;;;;;;;111.68;8.50;;;;;;;;;;5004115;28;20095;-52
2023/07/26 06:20:31;;;;;;;72.60;10.07;;;;;;;;;;5004838;28;20129;-52
2023/07/26 06:22:56;;;;;;;106.53;8.93;;;;;;;;;;5005588;28;20634;-51
2023/07/26 06:25:21;;;;;;;76.20;9.83;;;;;;;;;;5003914;28;20494;-51
2023/07/26 06:27:47;;;;;;;138.45;88.07;;;;;;;;;;5005820;28;20029;-52
2023/07/26 06:30:13;;;;;;;84.35;17.95;;;;;;;;;;5005138;28;20432;-52
2023/07/26 06:32:38;;;;;;;64.50;6.28;;;;;;;;;;5004730;28;20325;-51
2023/07/26 06:35:04;;;;;;;124.87;10.47;;;;;;;;;;5003909;28;20597;-54
2023/07/26 06:37:29;;;;;;;160.60;99.88;;;;;;;;;;5004230;28;20301;-51
2023/07/26 06:39:54;;;;;;;235.67;168.50;;;;;;;;;;5003507;28;20387;-51
2023/07/26 06:42:20;;;;;;;127.93;97.38;;;;;;;;;;5004037;28;20412;-51
2023/07/26 06:44:45;;;;;;;158.20;85.87;;;;;;;;;;5004949;28;20057;-51
2023/07/26 06:47:10;;;;;;;230.50;199.63;;;;;;;;;;5005588;28;20272;-51
2023/07/26 06:49:35;;;;;;;247.53;180.73;;;;;;;;;;5005820;28;20028;-53
2023/07/26 06:52:01;;;;;;;310.92;230.55;;;;;;;;;;5003814;28;20304;-53
2023/07/26 06:54:26;;;;;;;253.57;170.47;;;;;;;;;;5005763;28;20400;-51
2023/07/26 06:56:51;;;;;;;167.03;121.87;;;;;;;;;;5002462;28;20643;-51
2023/07/26 06:59:17;;;;;;;160.85;88.50;;;;;;;;;;5004397;28;20334;-50
2023/07/26 07:01:42;;;;;;;181.25;77.40;;;;;;;;;;5001538;28;20623;-51
2023/07/26 07:04:07;;;;;;;274.30;199.00;;;;;;;;;;5005450;28;20014;-51
2023/07/26 07:06:33;;;;;;;177.33;141.97;;;;;;;;;;5006414;28;20033;-51
2023/07/26 07:08:58;;;;;;;212.27;129.80;;;;;;;;;;5005944;28;20049;-50
2023/07/26 07:11:23;;;;;;;108.82;72.60;;;;;;;;;;5007453;28;20298;-51
2023/07/26 07:13:49;;;;;;;186.35;150.43;;;;;;;;;;5008218;28;20045;-51
2023/07/26 07:16:14;;;;;;;168.73;130.97;;;;;;;;;;5005725;28;20906;-51
2023/07/26 07:18:39;;;;;;;76.57;35.85;;;;;;;;;;5006729;28;20253;-51
2023/07/26 07:21:04;;;;;;;243.87;137.27;;;;;;;;;;5004701;28;20061;-51
2023/07/26 07:23:30;;;;;;;187.23;155.87;;;;;;;;;;5006910;28;20113;-53
2023/07/26 07:25:55;;;;;;;268.35;220.52;;;;;;;;;;5007086;28;20645;-52
2023/07/26 07:28:20;;;;;;;143.52;81.15;;;;;;;;;;5008872;28;20021;-51
2023/07/26 07:30:46;;;;;;;205.13;182.83;;;;;;;;;;5005942;28;20038;-51
2023/07/26 07:33:11;;;;;;;263.70;179.60;;;;;;;;;;5005472;28;20253;-51
2023/07/26 07:35:36;;;;;;;296.60;264.60;;;;;;;;;;5008171;28;20034;-51
2023/07/26 07:38:01;;;;;;;170.20;64.63;;;;;;;;;;5008278;28;20040;-50
2023/07/26 07:40:27;;;;;;;196.37;142.73;;;;;;;;;;5008571;28;20794;-52
2023/07/26 07:42:52;;;;;;;222.97;192.67;;;;;;;;;;5007315;28;20268;-51
2023/07/26 07:45:17;;;;;;;147.03;112.60;;;;;;;;;;5004700;28;20112;-51
2023/07/26 07:47:42;;;;;;;124.80;31.10;;;;;;;;;;5008344;28;20121;-51
2023/07/26 07:50:08;;;;;;;208.23;139.13;;;;;;;;;;5004603;28;20275;-51
2023/07/26 07:52:33;;;;;;;141.35;90.88;;;;;;;;;;5006671;28;20706;-51
2023/07/26 07:54:58;;;;;;;211.70;130.07;;;;;;;;;;5006911;28;20441;-51
2023/07/26 07:57:24;;;;;;;207.50;185.30;;;;;;;;;;5008275;28;20641;-51
2023/07/26 07:59:49;;;;;;;229.20;173.63;;;;;;;;;;5006905;28;20495;-52
2023/07/26 08:02:14;;;;;;;174.20;141.97;;;;;;;;;;5006575;28;20033;-54
2023/07/26 08:04:39;;;;;;;298.30;264.10;;;;;;;;;;5006752;28;20029;-54
2023/07/26 08:07:05;;;;;;;156.53;78.30;;;;;;;;;;5007728;28;20275;-52
2023/07/26 08:09:30;;;;;;;224.65;172.80;;;;;;;;;;5008179;28;20022;-51
2023/07/26 08:11:56;;;;;;;173.83;105.07;;;;;;;;;;5005938;28;20111;-50
2023/07/26 08:14:21;;;;;;;220.93;184.57;;;;;;;;;;5006687;28;20021;-51
2023/07/26 08:16:47;;;;;;;263.50;219.77;;;;;;;;;;5007693;28;20115;-51
2023/07/26 08:19:12;;;;;;;229.63;160.60;;;;;;;;;;5005722;28;20355;-51
2023/07/26 08:21:37;;;;;;;145.43;59.13;;;;;;;;;;5006441;28;20052;-51
2023/07/26 08:24:02;;;;;;;214.03;128.50;;;;;;;;;;5004225;28;20116;-53
2023/07/26 08:26:28;;;;;;;157.90;139.18;;;;;;;;;;5007191;28;20338;-52
2023/07/26 08:28:53;;;;;;;304.70;197.97;;;;;;;;;;5007213;28;20026;-54
2023/07/26 08:31:18;;;;;;;222.37;198.40;;;;;;;;;;5005931;28;20265;-51
2023/07/26 08:33:43;;;;;;;161.57;127.40;;;;;;;;;;5006137;28;20288;-53
2023/07/26 08:36:09;;;;;;;253.85;154.63;;;;;;;;;;5004459;28;20677;-51
2023/07/26 08:38:34;;;;;;;134.27;70.07;;;;;;;;;;5006203;28;20096;-52
2023/07/26 08:41:00;;;;;;;168.80;125.32;;;;;;;;;;5006691;28;21093;-52
2023/07/26 08:43:28;;;;;;;243.55;205.68;;;;;;;;;;5005800;28;20022;-51
2023/07/26 08:45:54;;;;;;;205.10;170.85;;;;;;;;;;5007041;28;20037;-52
2023/07/26 08:48:19;;;;;;;214.82;172.40;;;;;;;;;;5005362;28;20026;-50
2023/07/26 08:50:44;;;;;;;132.10;80.38;;;;;;;;;;5006642;28;20046;-51
2023/07/26 08:53:10;;;;;;;210.57;138.37;;;;;;;;;;5005031;28;20304;-51
2023/07/26 08:55:35;;;;;;;98.57;45.17;;;;;;;;;;5005371;28;20030;-50
2023/07/26 08:58:01;;;;;;;124.28;39.75;;;;;;;;;;5004650;28;20651;-51
2023/07/26 09:00:27;;;;;;;194.75;120.80;;;;;;;;;;5005410;28;20049;-52
2023/07/26 09:02:54;;;;;;;188.48;166.35;;;;;;;;;;5005510;28;20488;-53
2023/07/26 09:05:19;;;;;;;95.72;46.33;;;;;;;;;;5003890;28;20079;-51
2023/07/26 09:07:45;;;;;;;157.57;106.03;;;;;;;;;;5005495;28;20025;-56
2023/07/26 09:10:10;;;;;;;182.95;95.22;;;;;;;;;;5005154;28;20018;-51
2023/07/26 09:12:35;;;;;;;125.40;72.03;;;;;;;;;;5005220;28;20550;-51
2023/07/26 09:15:04;;;;;;;182.35;127.07;;;;;;;;;;5004979;28;20030;-50
2023/07/26 09:17:41;;;;;;;145.20;97.47;;;;;;;;;;5006436;28;20669;-51
2023/07/26 09:20:18;;;;;;;309.17;215.40;;;;;;;;;;5004249;28;20053;-50
2023/07/26 09:22:43;;;;;;;72.32;19.92;;;;;;;;;;5006064;28;20360;-51
2023/07/26 09:25:08;;;;;;;160.53;61.27;;;;;;;;;;5007168;28;20585;-51
2023/07/26 09:27:50;;;;;;;84.03;25.58;;;;;;;;;;5006226;28;20408;-51
2023/07/26 09:30:19;;;;;;;112.28;22.20;;;;;;;;;;5003930;28;20033;-52
2023/07/26 09:32:44;;;;;;;156.55;122.50;;;;;;;;;;5006850;28;20029;-52
2023/07/26 09:35:09;;;;;;;93.53;9.17;;;;;;;;;;5004627;28;20017;-51
2023/07/26 09:37:35;;;;;;;108.20;58.80;;;;;;;;;;5005645;28;20704;-51
2023/07/26 09:40:01;;;;;;;282.75;252.70;;;;;;;;;;5003571;28;20312;-51
2023/07/26 09:42:40;;;;;;;225.05;120.35;;;;;;;;;;5005415;28;20668;-54
2023/07/26 09:45:06;;;;;;;254.18;141.20;;;;;;;;;;5008144;28;20024;-51
2023/07/26 09:47:35;;;;;;;84.57;37.22;;;;;;;;;;5008529;28;20407;-53
2023/07/26 09:50:00;;;;;;;174.90;126.18;;;;;;;;;;5010178;28;20026;-52
2023/07/26 09:52:26;;;;;;;181.38;122.97;;;;;;;;;;5007094;28;20068;-51
2023/07/26 09:54:52;;;;;;;120.85;77.80;;;;;;;;;;5008607;28;20029;-52
2023/07/26 09:57:19;;;;;;;272.83;108.53;;;;;;;;;;5010373;28;20046;-54
2023/07/26 09:59:47;;;;;;;195.23;115.47;;;;;;;;;;5007753;28;20034;-52
2023/07/26 10:02:13;;;;;;;239.27;138.25;;;;;;;;;;5008755;28;20084;-52
2023/07/26 10:04:47;;;;;;;200.10;156.18;;;;;;;;;;5008336;28;20010;-51
2023/07/26 10:07:13;;;;;;;206.25;83.93;;;;;;;;;;5007111;28;20038;-52
2023/07/26 10:09:43;;;;;;;178.00;156.38;;;;;;;;;;5010786;28;20032;-51
2023/07/26 10:12:09;;;;;;;143.63;58.03;;;;;;;;;;5008922;28;20038;-52
2023/07/26 10:14:35;;;;;;;154.80;97.10;;;;;;;;;;5009660;28;20341;-51
2023/07/26 10:17:02;;;;;;;78.47;43.28;;;;;;;;;;5008751;28;20565;-52
2023/07/26 10:19:29;;;;;;;75.18;14.23;;;;;;;;;;5009452;28;20860;-54
2023/07/26 10:21:55;;;;;;;237.38;147.57;;;;;;;;;;5009325;28;20033;-54
2023/07/26 10:24:21;;;;;;;224.45;114.70;;;;;;;;;;5015696;28;20026;-52
2023/07/26 10:26:49;;;;;;;163.10;88.60;;;;;;;;;;5010361;28;20044;-52
2023/07/26 10:29:15;;;;;;;144.43;27.52;;;;;;;;;;5009302;28;20029;-51
2023/07/26 10:31:40;;;;;;;88.55;40.63;;;;;;;;;;5008265;28;20034;-52
2023/07/26 10:34:05;;;;;;;106.57;45.83;;;;;;;;;;5007504;28;20013;-51
2023/07/26 10:36:31;;;;;;;75.07;28.65;;;;;;;;;;5008188;28;20473;-51
2023/07/26 10:39:01;;;;;;;163.40;134.15;;;;;;;;;;5008390;28;20045;-51
2023/07/26 10:41:27;;;;;;;203.13;55.13;;;;;;;;;;5005997;28;20037;-51
2023/07/26 10:44:05;;;;;;;86.07;25.80;;;;;;;;;;5009514;28;20026;-51
2023/07/26 10:46:49;;;;;;;90.85;25.13;;;;;;;;;;5007104;28;20130;-52
2023/07/26 10:49:20;;;;;;;135.65;38.25;;;;;;;;;;5006202;28;20021;-51
2023/07/26 10:51:49;;;;;;;87.47;11.23;;;;;;;;;;5006034;28;20809;-51
2023/07/26 10:54:31;;;;;;;136.30;31.08;;;;;;;;;;5005953;28;20075;-51
2023/07/26 10:57:18;;;;;;;87.05;7.85;;;;;;;;;;5008814;28;20120;-51
2023/07/26 11:00:04;;;;;;;68.35;7.30;;;;;;;;;;5007987;28;20064;-51
2023/07/26 11:02:46;;;;;;;64.10;7.57;;;;;;;;;;5006429;28;20037;-51
2023/07/26 11:05:21;;;;;;;94.15;9.93;;;;;;;;;;5006063;28;20021;-53
2023/07/26 11:07:58;;;;;;;59.45;6.65;;;;;;;;;;5010394;28;20045;-50
2023/07/26 11:10:24;;;;;;;123.93;12.73;;;;;;;;;;5004953;28;20499;-51
2023/07/26 11:12:50;;;;;;;68.05;7.97;;;;;;;;;;5008218;28;20493;-51
2023/07/26 11:15:26;;;;;;;107.95;10.85;;;;;;;;;;5012899;28;20265;-52
2023/07/26 11:17:52;;;;;;;80.80;8.50;;;;;;;;;;5007451;28;20018;-51
2023/07/26 11:20:18;;;;;;;105.13;10.52;;;;;;;;;;5007030;28;20454;-51
2023/07/26 11:22:43;;;;;;;72.45;7.07;;;;;;;;;;5007549;28;20479;-51
2023/07/26 11:25:10;;;;;;;77.83;8.40;;;;;;;;;;5005224;28;20088;-50
2023/07/26 11:27:36;;;;;;;60.72;7.40;;;;;;;;;;5007395;28;20642;-51
2023/07/26 11:30:01;;;;;;;73.53;7.90;;;;;;;;;;5007439;28;20025;-51
2023/07/26 11:32:28;;;;;;;57.28;7.03;;;;;;;;;;5006635;28;20569;-51
2023/07/26 11:34:56;;;;;;;69.82;7.05;;;;;;;;;;5007156;28;20034;-51
2023/07/26 11:37:21;;;;;;;107.55;14.82;;;;;;;;;;5004740;28;20095;-51
2023/07/26 11:39:47;;;;;;;84.37;7.00;;;;;;;;;;5007960;28;20069;-51
2023/07/26 11:42:15;;;;;;;130.17;29.67;;;;;;;;;;5006598;28;20261;-51
2023/07/26 11:44:41;;;;;;;68.28;15.45;;;;;;;;;;5009050;28;20253;-53
2023/07/26 11:47:07;;;;;;;75.47;6.27;;;;;;;;;;5006963;28;20040;-52
2023/07/26 11:49:32;;;;;;;67.70;11.32;;;;;;;;;;5005394;28;20372;-52
2023/07/26 11:51:57;;;;;;;69.72;10.00;;;;;;;;;;5005694;28;20092;-51
2023/07/26 11:54:23;;;;;;;140.10;27.93;;;;;;;;;;5009603;28;20108;-52
2023/07/26 11:56:48;;;;;;;94.93;49.47;;;;;;;;;;5009468;28;20658;-52
2023/07/26 11:59:14;;;;;;;121.25;32.72;;;;;;;;;;5006157;28;20288;-54
2023/07/26 12:01:40;;;;;;;124.13;56.63;;;;;;;;;;5005232;28;20460;-51
2023/07/26 12:04:10;;;;;;;64.80;17.30;;;;;;;;;;5007658;28;20586;-51
2023/07/26 12:06:35;;;;;;;114.57;76.30;;;;;;;;;;5006070;28;20030;-51
2023/07/26 12:09:09;;;;;;;131.45;85.18;;;;;;;;;;5008007;28;20020;-51
2023/07/26 12:11:35;;;;;;;61.72;17.02;;;;;;;;;;5007846;28;20486;-51
2023/07/26 12:14:01;;;;;;;122.13;63.03;;;;;;;;;;5006672;28;20021;-54
2023/07/26 12:16:27;;;;;;;207.30;143.93;;;;;;;;;;5004126;28;20037;-51
2023/07/26 12:18:54;;;;;;;175.88;138.70;;;;;;;;;;5006123;28;20069;-51
2023/07/26 12:21:22;;;;;;;201.52;108.20;;;;;;;;;;5006598;28;20127;-51
2023/07/26 12:23:49;;;;;;;106.47;61.58;;;;;;;;;;5006704;28;20120;-51
2023/07/26 12:26:14;;;;;;;215.80;145.20;;;;;;;;;;5004942;28;20029;-53
2023/07/26 12:28:39;;;;;;;188.27;151.38;;;;;;;;;;5008507;28;20017;-51
2023/07/26 12:31:05;;;;;;;181.60;156.80;;;;;;;;;;5004575;28;20526;-51
2023/07/26 12:33:30;;;;;;;187.63;167.87;;;;;;;;;;5004459;28;20036;-51
2023/07/26 12:35:55;;;;;;;207.63;150.07;;;;;;;;;;5006115;28;20846;-54
2023/07/26 12:38:22;;;;;;;202.80;149.95;;;;;;;;;;5003891;28;20093;-53
2023/07/26 12:40:47;;;;;;;146.05;129.70;;;;;;;;;;5005079;28;20045;-51
2023/07/26 12:43:22;;;;;;;206.27;152.45;;;;;;;;;;5004079;28;20075;-51
2023/07/26 12:45:47;;;;;;;93.00;54.67;;;;;;;;;;5006402;28;20459;-51
2023/07/26 12:48:12;;;;;;;76.27;35.30;;;;;;;;;;5004566;28;20100;-51
2023/07/26 12:50:39;;;;;;;101.32;68.75;;;;;;;;;;5005569;28;20496;-51
2023/07/26 12:53:06;;;;;;;73.03;12.40;;;;;;;;;;5005680;28;20035;-52
2023/07/26 12:55:31;;;;;;;133.18;26.05;;;;;;;;;;5004071;28;20380;-54
2023/07/26 12:57:56;;;;;;;76.93;25.57;;;;;;;;;;5006424;28;20530;-51
2023/07/26 13:00:22;;;;;;;106.93;26.70;;;;;;;;;;5005089;28;20026;-51
2023/07/26 13:02:48;;;;;;;69.85;15.10;;;;;;;;;;5005691;28;20265;-51
2023/07/26 13:05:13;;;;;;;213.75;191.88;;;;;;;;;;5008762;28;20087;-52
2023/07/26 13:07:38;;;;;;;42.90;5.87;;;;;;;;;;5004758;28;20446;-53
2023/07/26 13:10:03;;;;;;;87.70;35.63;;;;;;;;;;5006922;28;20361;-53
2023/07/26 13:12:29;;;;;;;111.57;43.95;;;;;;;;;;5003740;28;20049;-51
2023/07/26 13:14:54;;;;;;;64.10;8.43;;;;;;;;;;5005533;28;20124;-52
2023/07/26 13:17:19;;;;;;;226.70;146.27;;;;;;;;;;5005670;28;20276;-51
2023/07/26 13:19:45;;;;;;;174.70;155.63;;;;;;;;;;5010658;28;20028;-53
2023/07/26 13:22:10;;;;;;;179.20;129.07;;;;;;;;;;5008691;28;20731;-53
2023/07/26 13:24:35;;;;;;;117.50;73.43;;;;;;;;;;5007461;28;20498;-51
2023/07/26 13:27:01;;;;;;;87.55;41.90;;;;;;;;;;5008365;28;20464;-51
2023/07/26 13:29:26;;;;;;;282.57;202.30;;;;;;;;;;5007931;28;20018;-52
2023/07/26 13:31:51;;;;;;;69.80;12.90;;;;;;;;;;5011215;28;20276;-52
2023/07/26 13:34:17;;;;;;;218.77;192.47;;;;;;;;;;5008705;28;21307;-51
2023/07/26 13:36:42;;;;;;;110.18;42.60;;;;;;;;;;5010553;28;20532;-54
2023/07/26 13:39:07;;;;;;;105.67;73.37;;;;;;;;;;5010218;28;20069;-53
2023/07/26 13:41:32;;;;;;;261.40;174.20;;;;;;;;;;5009017;28;20381;-52
2023/07/26 13:43:58;;;;;;;60.73;21.03;;;;;;;;;;5010817;28;20041;-52
2023/07/26 13:46:23;;;;;;;230.13;198.87;;;;;;;;;;5008264;28;20331;-50
2023/07/26 13:48:48;;;;;;;226.02;201.40;;;;;;;;;;5011082;28;20727;-52
2023/07/26 13:51:13;;;;;;;62.80;26.03;;;;;;;;;;5008977;28;20117;-51
2023/07/26 13:53:39;;;;;;;167.25;122.43;;;;;;;;;;5007181;28;20293;-51
2023/07/26 13:56:04;;;;;;;139.47;107.93;;;;;;;;;;5009754;28;20204;-51
2023/07/26 13:58:29;;;;;;;144.40;44.83;;;;;;;;;;5008501;28;20260;-53
2023/07/26 14:00:55;;;;;;;224.30;200.02;;;;;;;;;;5009859;28;20611;-52
2023/07/26 14:03:20;;;;;;;185.80;107.37;;;;;;;;;;5008142;28;20653;-51
2023/07/26 14:05:45;;;;;;;124.25;53.63;;;;;;;;;;5009643;28;20060;-52